ARG1894 SAWC-SAWH
Flight info
| Callsign | ARG1894 |
|---|---|
| Flight time | 1h 12m |
| Altitude | 35000 |
| Route | DEVIS UW52 GAL UW42 GRA DCT DABLI |
| Aircraft | B738/M-SDFGHILRVW/S |
Departure
| Time | 2026-04-22 22:49 |
|---|---|
| Airport | El Calafate - Commander Armando Tola International Airport (SAWC) |
Arrival
| Time | 2026-04-23 00:02 |
|---|---|
| Airport | Ushuaia - Malvinas Argentinas International Airport (SAWH) |
| Time | Latitude | Longitude | Altitude | Speed | Heading |
|---|---|---|---|---|---|
| 2026-04-22 22:18 | -50.28330 | -72.05459 | 642 ft | 0 kts | 175° |
| 2026-04-22 22:38 | -50.28318 | -72.05460 | 644 ft | 4 kts | 176° |
| 2026-04-22 22:38 | -50.28291 | -72.05463 | 644 ft | 4 kts | 171° |
| 2026-04-22 22:38 | -50.28268 | -72.05475 | 642 ft | 4 kts | 126° |
| 2026-04-22 22:38 | -50.28265 | -72.05504 | 642 ft | 4 kts | 83° |
| 2026-04-22 22:39 | -50.28267 | -72.05534 | 642 ft | 0 kts | 83° |
| 2026-04-22 22:41 | -50.28267 | -72.05531 | 642 ft | 1 kts | 83° |
| 2026-04-22 22:42 | -50.28264 | -72.05499 | 642 ft | 6 kts | 82° |
| 2026-04-22 22:42 | -50.28256 | -72.05422 | 642 ft | 7 kts | 60° |
| 2026-04-22 22:42 | -50.28211 | -72.05403 | 642 ft | 7 kts | 357° |
| 2026-04-22 22:42 | -50.28163 | -72.05407 | 642 ft | 7 kts | 356° |
| 2026-04-22 22:43 | -50.28128 | -72.05412 | 642 ft | 3 kts | 355° |
| 2026-04-22 22:43 | -50.28122 | -72.05412 | 642 ft | 0 kts | 355° |
| 2026-04-22 22:46 | -50.28120 | -72.05413 | 642 ft | 2 kts | 355° |
| 2026-04-22 22:46 | -50.28068 | -72.05419 | 643 ft | 12 kts | 357° |
| 2026-04-22 22:46 | -50.28019 | -72.05327 | 643 ft | 13 kts | 82° |
| 2026-04-22 22:46 | -50.28010 | -72.05160 | 644 ft | 19 kts | 85° |
| 2026-04-22 22:47 | -50.27995 | -72.04906 | 645 ft | 27 kts | 85° |
| 2026-04-22 22:47 | -50.27974 | -72.04561 | 644 ft | 36 kts | 85° |
| 2026-04-22 22:47 | -50.27950 | -72.04170 | 641 ft | 36 kts | 84° |
| 2026-04-22 22:47 | -50.27929 | -72.03791 | 640 ft | 30 kts | 85° |
| 2026-04-22 22:48 | -50.27962 | -72.03610 | 642 ft | 9 kts | 89° |
| 2026-04-22 22:48 | -50.27921 | -72.03583 | 642 ft | 6 kts | 310° |
| 2026-04-22 22:48 | -50.27919 | -72.03617 | 642 ft | 1 kts | 265° |
| 2026-04-22 22:48 | -50.27931 | -72.03825 | 640 ft | 53 kts | 264° |
| 2026-04-22 22:49 | -50.27987 | -72.04772 | 644 ft | 120 kts | 264° |
| 2026-04-22 22:49 | -50.28066 | -72.06311 | 887 ft | 152 kts | 263° |
| 2026-04-22 22:49 | -50.28178 | -72.07923 | 1725 ft | 154 kts | 269° |
| 2026-04-22 22:49 | -50.28291 | -72.09616 | 2330 ft | 167 kts | 271° |
| 2026-04-22 22:50 | -50.28396 | -72.11570 | 2638 ft | 193 kts | 271° |
| 2026-04-22 22:50 | -50.28527 | -72.13788 | 2958 ft | 214 kts | 270° |
| 2026-04-22 22:50 | -50.28673 | -72.16220 | 3416 ft | 230 kts | 269° |
| 2026-04-22 22:50 | -50.28820 | -72.18691 | 4463 ft | 225 kts | 269° |
| 2026-04-22 22:51 | -50.28960 | -72.21082 | 5676 ft | 217 kts | 269° |
| 2026-04-22 22:51 | -50.29095 | -72.23421 | 6652 ft | 216 kts | 270° |
| 2026-04-22 22:51 | -50.29227 | -72.25788 | 7463 ft | 221 kts | 269° |
| 2026-04-22 22:51 | -50.29365 | -72.28186 | 8353 ft | 221 kts | 269° |
| 2026-04-22 22:52 | -50.29502 | -72.30557 | 9319 ft | 221 kts | 270° |
| 2026-04-22 22:52 | -50.29640 | -72.32956 | 10082 ft | 224 kts | 270° |
| 2026-04-22 22:52 | -50.29779 | -72.35414 | 10822 ft | 228 kts | 270° |
| 2026-04-22 22:52 | -50.29961 | -72.37903 | 11574 ft | 235 kts | 262° |
| 2026-04-22 22:53 | -50.30683 | -72.40285 | 12340 ft | 250 kts | 246° |
| 2026-04-22 22:53 | -50.31874 | -72.42382 | 13079 ft | 271 kts | 228° |
| 2026-04-22 22:53 | -50.33505 | -72.44010 | 13778 ft | 281 kts | 223° |
| 2026-04-22 22:53 | -50.35203 | -72.45576 | 14470 ft | 285 kts | 222° |
| 2026-04-22 22:54 | -50.37120 | -72.46734 | 15112 ft | 313 kts | 200° |
| 2026-04-22 22:54 | -50.39391 | -72.46578 | 15793 ft | 344 kts | 175° |
| 2026-04-22 22:54 | -50.41634 | -72.44859 | 16195 ft | 381 kts | 148° |
| 2026-04-22 22:54 | -50.43401 | -72.41611 | 16352 ft | 414 kts | 120° |
| 2026-04-22 22:55 | -50.44466 | -72.37305 | 16698 ft | 431 kts | 106° |
| 2026-04-22 22:55 | -50.45227 | -72.32701 | 17196 ft | 438 kts | 103° |
| 2026-04-22 22:55 | -50.46793 | -72.23331 | 18339 ft | 447 kts | 106° |
| 2026-04-22 22:56 | -50.47707 | -72.18653 | 18949 ft | 450 kts | 108° |
| 2026-04-22 22:56 | -50.48685 | -72.13975 | 19539 ft | 453 kts | 108° |
| 2026-04-22 22:56 | -50.49701 | -72.09267 | 20084 ft | 453 kts | 109° |
| 2026-04-22 22:56 | -50.50707 | -72.04639 | 21069 ft | 444 kts | 109° |
| 2026-04-22 22:57 | -50.51703 | -72.00033 | 21660 ft | 447 kts | 108° |
| 2026-04-22 22:57 | -50.52703 | -71.95368 | 22102 ft | 453 kts | 108° |
| 2026-04-22 22:57 | -50.53708 | -71.90654 | 22617 ft | 457 kts | 108° |
| 2026-04-22 22:57 | -50.54716 | -71.85912 | 23134 ft | 458 kts | 108° |
| 2026-04-22 22:58 | -50.55727 | -71.81144 | 23605 ft | 460 kts | 108° |
| 2026-04-22 22:58 | -50.56924 | -71.76501 | 24020 ft | 462 kts | 121° |
| 2026-04-22 22:58 | -50.58901 | -71.72524 | 24463 ft | 460 kts | 135° |
| 2026-04-22 22:58 | -50.61071 | -71.68802 | 24845 ft | 465 kts | 135° |
| 2026-04-22 22:59 | -50.63272 | -71.64994 | 25018 ft | 474 kts | 134° |
| 2026-04-22 22:59 | -50.65461 | -71.61159 | 25391 ft | 477 kts | 134° |
| 2026-04-22 22:59 | -50.67695 | -71.57198 | 25880 ft | 477 kts | 134° |
| 2026-04-22 22:59 | -50.69873 | -71.53309 | 26305 ft | 479 kts | 133° |
| 2026-04-22 23:00 | -50.72079 | -71.49350 | 26661 ft | 482 kts | 133° |
| 2026-04-22 23:00 | -50.74303 | -71.45347 | 27011 ft | 485 kts | 133° |
| 2026-04-22 23:00 | -50.76534 | -71.41329 | 27376 ft | 488 kts | 133° |
| 2026-04-22 23:00 | -50.78775 | -71.37288 | 27792 ft | 490 kts | 133° |
| 2026-04-22 23:01 | -50.81045 | -71.33192 | 27865 ft | 500 kts | 133° |
| 2026-04-22 23:01 | -50.83347 | -71.29032 | 28081 ft | 505 kts | 133° |
| 2026-04-22 23:01 | -50.85662 | -71.24840 | 28515 ft | 505 kts | 132° |
| 2026-04-22 23:01 | -50.87974 | -71.20644 | 28919 ft | 506 kts | 132° |
| 2026-04-22 23:02 | -50.90265 | -71.16482 | 29237 ft | 508 kts | 132° |
| 2026-04-22 23:02 | -50.92599 | -71.12235 | 29509 ft | 511 kts | 132° |
| 2026-04-22 23:02 | -50.94940 | -71.07967 | 29767 ft | 514 kts | 132° |
| 2026-04-22 23:02 | -50.97283 | -71.03691 | 30076 ft | 515 kts | 132° |
| 2026-04-22 23:03 | -50.99621 | -70.99404 | 30546 ft | 511 kts | 130° |
| 2026-04-22 23:03 | -51.01553 | -70.94691 | 30919 ft | 508 kts | 112° |
| 2026-04-22 23:03 | -51.02604 | -70.89390 | 31230 ft | 500 kts | 95° |
| 2026-04-22 23:03 | -51.03034 | -70.83939 | 31579 ft | 497 kts | 91° |
| 2026-04-22 23:04 | -51.03384 | -70.78488 | 31923 ft | 496 kts | 91° |
| 2026-04-22 23:04 | -51.03742 | -70.73025 | 32237 ft | 495 kts | 92° |
| 2026-04-22 23:04 | -51.04130 | -70.67596 | 32628 ft | 494 kts | 92° |
| 2026-04-22 23:04 | -51.04542 | -70.62185 | 32989 ft | 493 kts | 92° |
| 2026-04-22 23:05 | -51.04961 | -70.56781 | 33304 ft | 492 kts | 92° |
| 2026-04-22 23:05 | -51.05520 | -70.51471 | 33542 ft | 497 kts | 104° |
| 2026-04-22 23:05 | -51.06960 | -70.46376 | 33709 ft | 504 kts | 123° |
| 2026-04-22 23:05 | -51.09023 | -70.41962 | 33987 ft | 502 kts | 128° |
| 2026-04-22 23:06 | -51.11193 | -70.37613 | 34253 ft | 503 kts | 129° |
| 2026-04-22 23:06 | -51.13389 | -70.33255 | 34325 ft | 507 kts | 129° |
| 2026-04-22 23:06 | -51.17791 | -70.24397 | 34349 ft | 510 kts | 128° |
| 2026-04-22 23:07 | -51.22124 | -70.15477 | 34345 ft | 505 kts | 127° |
| 2026-04-22 23:07 | -51.26390 | -70.06600 | 34331 ft | 503 kts | 128° |
| 2026-04-22 23:08 | -51.30639 | -69.97729 | 34360 ft | 503 kts | 127° |
| 2026-04-22 23:08 | -51.34885 | -69.88843 | 34363 ft | 503 kts | 127° |
| 2026-04-22 23:09 | -51.39103 | -69.79991 | 34363 ft | 503 kts | 127° |
| 2026-04-22 23:09 | -51.43349 | -69.71047 | 34358 ft | 504 kts | 127° |
| 2026-04-22 23:10 | -51.47599 | -69.62066 | 34379 ft | 505 kts | 127° |
| 2026-04-22 23:10 | -51.51844 | -69.53060 | 34377 ft | 506 kts | 127° |
| 2026-04-22 23:11 | -51.56076 | -69.44056 | 34360 ft | 507 kts | 127° |
| 2026-04-22 23:11 | -51.60653 | -69.35453 | 34352 ft | 506 kts | 141° |
| 2026-04-22 23:12 | -51.66446 | -69.29186 | 34354 ft | 498 kts | 160° |
| 2026-04-22 23:12 | -51.72806 | -69.24790 | 34354 ft | 497 kts | 162° |
| 2026-04-22 23:13 | -51.79186 | -69.20480 | 34356 ft | 497 kts | 161° |
| 2026-04-22 23:13 | -51.85554 | -69.16076 | 34352 ft | 498 kts | 161° |
| 2026-04-22 23:14 | -51.91872 | -69.11635 | 34354 ft | 499 kts | 161° |
| 2026-04-22 23:14 | -51.98244 | -69.07128 | 34348 ft | 499 kts | 161° |
| 2026-04-22 23:15 | -52.04615 | -69.02611 | 34343 ft | 499 kts | 161° |
| 2026-04-22 23:15 | -52.10990 | -68.98081 | 34368 ft | 499 kts | 161° |
| 2026-04-22 23:16 | -52.17363 | -68.93539 | 34343 ft | 500 kts | 161° |
| 2026-04-22 23:16 | -52.23742 | -68.88979 | 34332 ft | 500 kts | 161° |
| 2026-04-22 23:17 | -52.30112 | -68.84411 | 34326 ft | 500 kts | 161° |
| 2026-04-22 23:17 | -52.36499 | -68.79816 | 34331 ft | 501 kts | 161° |
| 2026-04-22 23:18 | -52.42860 | -68.75225 | 34332 ft | 502 kts | 160° |
| 2026-04-22 23:18 | -52.49254 | -68.70595 | 34324 ft | 502 kts | 160° |
| 2026-04-22 23:19 | -52.55619 | -68.65972 | 34331 ft | 503 kts | 160° |
| 2026-04-22 23:19 | -52.62015 | -68.61311 | 34319 ft | 503 kts | 160° |
| 2026-04-22 23:20 | -52.68446 | -68.56612 | 34322 ft | 509 kts | 160° |
| 2026-04-22 23:20 | -52.74951 | -68.51839 | 34307 ft | 512 kts | 160° |
| 2026-04-22 23:21 | -52.81460 | -68.47049 | 34318 ft | 513 kts | 160° |
| 2026-04-22 23:21 | -52.87980 | -68.42243 | 34294 ft | 512 kts | 160° |
| 2026-04-22 23:22 | -52.93387 | -68.38247 | 34290 ft | 511 kts | 160° |
| 2026-04-22 23:22 | -52.99871 | -68.33439 | 34280 ft | 509 kts | 160° |
| 2026-04-22 23:23 | -53.06338 | -68.28627 | 34290 ft | 509 kts | 160° |
| 2026-04-22 23:23 | -53.13853 | -68.23016 | 34162 ft | 511 kts | 160° |
| 2026-04-22 23:24 | -53.16064 | -68.21364 | 33757 ft | 514 kts | 160° |
| 2026-04-22 23:24 | -53.19284 | -68.18952 | 33159 ft | 514 kts | 160° |
| 2026-04-22 23:24 | -53.22545 | -68.16503 | 32469 ft | 514 kts | 160° |
| 2026-04-22 23:24 | -53.25808 | -68.14047 | 31800 ft | 514 kts | 160° |
| 2026-04-22 23:25 | -53.29060 | -68.11595 | 31282 ft | 511 kts | 160° |
| 2026-04-22 23:25 | -53.32287 | -68.09155 | 30816 ft | 506 kts | 160° |
| 2026-04-22 23:25 | -53.35485 | -68.06735 | 30348 ft | 502 kts | 160° |
| 2026-04-22 23:25 | -53.38664 | -68.04327 | 29903 ft | 499 kts | 159° |
| 2026-04-22 23:26 | -53.41809 | -68.01942 | 29435 ft | 495 kts | 159° |
| 2026-04-22 23:26 | -53.44938 | -67.99565 | 28928 ft | 492 kts | 159° |
| 2026-04-22 23:26 | -53.48044 | -67.97202 | 28497 ft | 487 kts | 160° |
| 2026-04-22 23:26 | -53.51126 | -67.94853 | 27987 ft | 483 kts | 160° |
| 2026-04-22 23:27 | -53.54173 | -67.92527 | 27533 ft | 479 kts | 160° |
| 2026-04-22 23:27 | -53.57158 | -67.90245 | 27078 ft | 475 kts | 160° |
| 2026-04-22 23:27 | -53.60157 | -67.87949 | 26629 ft | 471 kts | 160° |
| 2026-04-22 23:27 | -53.63135 | -67.85665 | 26180 ft | 467 kts | 160° |
| 2026-04-22 23:28 | -53.66084 | -67.83401 | 25745 ft | 464 kts | 160° |
| 2026-04-22 23:28 | -53.69017 | -67.81145 | 25304 ft | 461 kts | 160° |
| 2026-04-22 23:28 | -53.71926 | -67.78905 | 24889 ft | 458 kts | 160° |
| 2026-04-22 23:28 | -53.74825 | -67.76683 | 24444 ft | 455 kts | 162° |
| 2026-04-22 23:29 | -53.77795 | -67.74967 | 23992 ft | 446 kts | 172° |
| 2026-04-22 23:29 | -53.80808 | -67.74065 | 23550 ft | 435 kts | 183° |
| 2026-04-22 23:29 | -53.83770 | -67.73742 | 23139 ft | 430 kts | 185° |
| 2026-04-22 23:29 | -53.86759 | -67.73475 | 22659 ft | 429 kts | 185° |
| 2026-04-22 23:30 | -53.89730 | -67.73213 | 22162 ft | 427 kts | 185° |
| 2026-04-22 23:30 | -53.92684 | -67.72938 | 21726 ft | 423 kts | 185° |
| 2026-04-22 23:30 | -53.95619 | -67.72649 | 21290 ft | 420 kts | 185° |
| 2026-04-22 23:30 | -53.98527 | -67.72350 | 20869 ft | 417 kts | 185° |
| 2026-04-22 23:31 | -54.01417 | -67.72046 | 20445 ft | 414 kts | 185° |
| 2026-04-22 23:31 | -54.04280 | -67.71740 | 20019 ft | 410 kts | 185° |
| 2026-04-22 23:31 | -54.07081 | -67.71440 | 19600 ft | 408 kts | 185° |
| 2026-04-22 23:31 | -54.09907 | -67.71136 | 19187 ft | 405 kts | 185° |
| 2026-04-22 23:32 | -54.12706 | -67.70835 | 18773 ft | 402 kts | 185° |
| 2026-04-22 23:32 | -54.15488 | -67.70537 | 18366 ft | 399 kts | 185° |
| 2026-04-22 23:32 | -54.18251 | -67.70239 | 17970 ft | 396 kts | 186° |
| 2026-04-22 23:32 | -54.21003 | -67.69942 | 17581 ft | 393 kts | 186° |
| 2026-04-22 23:33 | -54.23738 | -67.69647 | 17136 ft | 391 kts | 185° |
| 2026-04-22 23:33 | -54.26454 | -67.69351 | 16718 ft | 391 kts | 186° |
| 2026-04-22 23:33 | -54.29168 | -67.69061 | 16291 ft | 391 kts | 186° |
| 2026-04-22 23:33 | -54.31877 | -67.68771 | 15875 ft | 389 kts | 186° |
| 2026-04-22 23:34 | -54.34570 | -67.68478 | 15460 ft | 386 kts | 186° |
| 2026-04-22 23:34 | -54.37201 | -67.68191 | 15079 ft | 383 kts | 186° |
| 2026-04-22 23:34 | -54.39849 | -67.67899 | 14684 ft | 378 kts | 185° |
| 2026-04-22 23:34 | -54.42467 | -67.67606 | 14280 ft | 375 kts | 186° |
| 2026-04-22 23:35 | -54.45067 | -67.67335 | 13892 ft | 373 kts | 186° |
| 2026-04-22 23:35 | -54.47647 | -67.67056 | 13518 ft | 370 kts | 186° |
| 2026-04-22 23:35 | -54.50204 | -67.66774 | 13130 ft | 368 kts | 186° |
| 2026-04-22 23:35 | -54.52789 | -67.66491 | 12398 ft | 375 kts | 186° |
| 2026-04-22 23:36 | -54.55399 | -67.66204 | 11785 ft | 377 kts | 186° |
| 2026-04-22 23:36 | -54.58027 | -67.65912 | 11135 ft | 380 kts | 185° |
| 2026-04-22 23:36 | -54.60665 | -67.65614 | 10492 ft | 377 kts | 185° |
| 2026-04-22 23:36 | -54.63262 | -67.65317 | 9856 ft | 371 kts | 185° |
| 2026-04-22 23:37 | -54.65816 | -67.65025 | 9245 ft | 363 kts | 185° |
| 2026-04-22 23:37 | -54.68284 | -67.64738 | 9068 ft | 342 kts | 185° |
| 2026-04-22 23:37 | -54.70550 | -67.64469 | 9024 ft | 321 kts | 186° |
| 2026-04-22 23:37 | -54.72717 | -67.64210 | 8864 ft | 305 kts | 187° |
| 2026-04-22 23:38 | -54.74818 | -67.63994 | 8631 ft | 301 kts | 186° |
| 2026-04-22 23:38 | -54.76907 | -67.63764 | 8242 ft | 301 kts | 187° |
| 2026-04-22 23:38 | -54.78913 | -67.63975 | 7824 ft | 275 kts | 211° |
| 2026-04-22 23:38 | -54.80516 | -67.65409 | 7492 ft | 250 kts | 229° |
| 2026-04-22 23:39 | -54.81635 | -67.67469 | 7113 ft | 220 kts | 258° |
| 2026-04-22 23:39 | -54.81868 | -67.69883 | 6867 ft | 191 kts | 275° |
| 2026-04-22 23:39 | -54.81970 | -67.72166 | 6855 ft | 191 kts | 275° |
| 2026-04-22 23:39 | -54.82077 | -67.74489 | 6587 ft | 190 kts | 275° |
| 2026-04-22 23:40 | -54.82177 | -67.76683 | 6366 ft | 176 kts | 276° |
| 2026-04-22 23:40 | -54.82267 | -67.78749 | 6127 ft | 168 kts | 275° |
| 2026-04-22 23:40 | -54.82383 | -67.80738 | 5964 ft | 165 kts | 275° |
| 2026-04-22 23:40 | -54.82480 | -67.82665 | 5734 ft | 153 kts | 277° |
| 2026-04-22 23:41 | -54.82562 | -67.84459 | 5613 ft | 150 kts | 277° |
| 2026-04-22 23:41 | -54.82638 | -67.86240 | 5361 ft | 141 kts | 278° |
| 2026-04-22 23:41 | -54.82740 | -67.87831 | 5316 ft | 124 kts | 278° |
| 2026-04-22 23:41 | -54.82792 | -67.89584 | 5280 ft | 157 kts | 277° |
| 2026-04-22 23:42 | -54.82903 | -67.91456 | 4880 ft | 147 kts | 278° |
| 2026-04-22 23:42 | -54.82987 | -67.93156 | 4715 ft | 150 kts | 279° |
| 2026-04-22 23:42 | -54.83054 | -67.94930 | 4464 ft | 140 kts | 281° |
| 2026-04-22 23:42 | -54.83115 | -67.96521 | 4248 ft | 126 kts | 282° |
| 2026-04-22 23:43 | -54.83164 | -67.97967 | 4078 ft | 121 kts | 283° |
| 2026-04-22 23:43 | -54.83214 | -67.99424 | 3883 ft | 122 kts | 283° |
| 2026-04-22 23:43 | -54.83264 | -68.00894 | 3686 ft | 126 kts | 282° |
| 2026-04-22 23:43 | -54.83321 | -68.02393 | 3460 ft | 122 kts | 282° |
| 2026-04-22 23:44 | -54.83375 | -68.03870 | 3191 ft | 122 kts | 282° |
| 2026-04-22 23:44 | -54.83419 | -68.05347 | 2997 ft | 120 kts | 286° |
| 2026-04-22 23:44 | -54.83440 | -68.06737 | 2875 ft | 120 kts | 278° |
| 2026-04-22 23:44 | -54.83541 | -68.08240 | 2665 ft | 127 kts | 282° |
| 2026-04-22 23:45 | -54.83593 | -68.09755 | 2445 ft | 126 kts | 283° |
| 2026-04-22 23:45 | -54.83644 | -68.11252 | 2237 ft | 125 kts | 284° |
| 2026-04-22 23:45 | -54.83696 | -68.12789 | 2008 ft | 131 kts | 281° |
| 2026-04-22 23:45 | -54.83755 | -68.14453 | 1769 ft | 143 kts | 277° |
| 2026-04-22 23:46 | -54.83823 | -68.16191 | 1546 ft | 144 kts | 277° |
| 2026-04-22 23:46 | -54.83886 | -68.17917 | 1321 ft | 143 kts | 271° |
| 2026-04-22 23:46 | -54.84027 | -68.19658 | 1118 ft | 144 kts | 272° |
| 2026-04-22 23:46 | -54.84103 | -68.21356 | 1016 ft | 146 kts | 273° |
| 2026-04-22 23:47 | -54.84157 | -68.23220 | 1612 ft | 161 kts | 274° |
| 2026-04-22 23:47 | -54.84155 | -68.25389 | 2113 ft | 197 kts | 273° |
| 2026-04-22 23:47 | -54.84279 | -68.27729 | 3169 ft | 190 kts | 276° |
| 2026-04-22 23:47 | -54.84402 | -68.30055 | 3997 ft | 202 kts | 276° |
| 2026-04-22 23:48 | -54.84509 | -68.32641 | 4522 ft | 223 kts | 273° |
| 2026-04-22 23:48 | -54.84853 | -68.35357 | 5315 ft | 246 kts | 252° |
| 2026-04-22 23:48 | -54.86087 | -68.37588 | 6312 ft | 272 kts | 222° |
| 2026-04-22 23:48 | -54.87836 | -68.39035 | 7158 ft | 284 kts | 212° |
| 2026-04-22 23:49 | -54.89787 | -68.39825 | 8049 ft | 304 kts | 192° |
| 2026-04-22 23:49 | -54.91933 | -68.39213 | 8998 ft | 323 kts | 165° |
| 2026-04-22 23:49 | -54.93891 | -68.37033 | 9700 ft | 341 kts | 139° |
| 2026-04-22 23:49 | -54.95250 | -68.33616 | 10031 ft | 349 kts | 111° |
| 2026-04-22 23:50 | -54.95796 | -68.29592 | 10218 ft | 348 kts | 88° |
| 2026-04-22 23:50 | -54.95521 | -68.25492 | 10082 ft | 338 kts | 70° |
| 2026-04-22 23:50 | -54.94968 | -68.21545 | 9855 ft | 331 kts | 68° |
| 2026-04-22 23:50 | -54.94398 | -68.17698 | 9477 ft | 327 kts | 68° |
| 2026-04-22 23:51 | -54.93829 | -68.13895 | 9103 ft | 322 kts | 68° |
| 2026-04-22 23:51 | -54.93281 | -68.10163 | 8770 ft | 316 kts | 68° |
| 2026-04-22 23:51 | -54.92749 | -68.06493 | 8431 ft | 311 kts | 68° |
| 2026-04-22 23:51 | -54.92226 | -68.02864 | 8036 ft | 308 kts | 68° |
| 2026-04-22 23:52 | -54.91710 | -67.99277 | 7682 ft | 304 kts | 68° |
| 2026-04-22 23:52 | -54.91201 | -67.95730 | 7313 ft | 300 kts | 67° |
| 2026-04-22 23:52 | -54.90704 | -67.92248 | 7001 ft | 292 kts | 67° |
| 2026-04-22 23:52 | -54.90227 | -67.88930 | 6652 ft | 282 kts | 66° |
| 2026-04-22 23:53 | -54.89758 | -67.85673 | 6340 ft | 274 kts | 66° |
| 2026-04-22 23:53 | -54.89299 | -67.82497 | 6091 ft | 268 kts | 65° |
| 2026-04-22 23:53 | -54.88828 | -67.79411 | 5813 ft | 258 kts | 59° |
| 2026-04-22 23:53 | -54.87889 | -67.77103 | 5489 ft | 215 kts | 21° |
| 2026-04-22 23:54 | -54.86641 | -67.76102 | 5215 ft | 184 kts | 359° |
| 2026-04-22 23:54 | -54.85476 | -67.76011 | 5146 ft | 157 kts | 341° |
| 2026-04-22 23:54 | -54.84456 | -67.76551 | 5137 ft | 151 kts | 328° |
| 2026-04-22 23:54 | -54.83624 | -67.77555 | 5137 ft | 146 kts | 314° |
| 2026-04-22 23:55 | -54.83003 | -67.78955 | 5121 ft | 143 kts | 303° |
| 2026-04-22 23:55 | -54.82560 | -67.80571 | 5145 ft | 163 kts | 292° |
| 2026-04-22 23:55 | -54.82488 | -67.82494 | 5126 ft | 156 kts | 277° |
| 2026-04-22 23:55 | -54.82558 | -67.84380 | 5199 ft | 160 kts | 278° |
| 2026-04-22 23:56 | -54.82556 | -67.86296 | 5122 ft | 155 kts | 281° |
| 2026-04-22 23:56 | -54.82789 | -67.88207 | 5120 ft | 179 kts | 256° |
| 2026-04-22 23:56 | -54.83124 | -67.90186 | 5267 ft | 167 kts | 277° |
| 2026-04-22 23:56 | -54.83109 | -67.92165 | 4788 ft | 162 kts | 281° |
| 2026-04-22 23:57 | -54.83114 | -67.94065 | 4835 ft | 153 kts | 278° |
| 2026-04-22 23:57 | -54.83246 | -67.95965 | 4389 ft | 159 kts | 276° |
| 2026-04-22 23:57 | -54.83288 | -67.97836 | 4095 ft | 151 kts | 284° |
| 2026-04-22 23:57 | -54.83267 | -67.99640 | 3843 ft | 151 kts | 282° |
| 2026-04-22 23:58 | -54.83353 | -68.01495 | 3600 ft | 162 kts | 275° |
| 2026-04-22 23:58 | -54.83478 | -68.03488 | 3311 ft | 166 kts | 278° |
| 2026-04-22 23:58 | -54.83503 | -68.05462 | 3044 ft | 166 kts | 281° |
| 2026-04-22 23:58 | -54.83559 | -68.07432 | 2787 ft | 161 kts | 277° |
| 2026-04-22 23:59 | -54.83653 | -68.09405 | 2499 ft | 165 kts | 277° |
| 2026-04-22 23:59 | -54.83710 | -68.11416 | 2207 ft | 170 kts | 281° |
| 2026-04-22 23:59 | -54.83766 | -68.13522 | 1894 ft | 181 kts | 273° |
| 2026-04-22 23:59 | -54.83860 | -68.15732 | 1616 ft | 184 kts | 271° |
| 2026-04-23 00:00 | -54.83996 | -68.19865 | 1120 ft | 158 kts | 272° |
| 2026-04-23 00:00 | -54.84047 | -68.21123 | 921 ft | 153 kts | 275° |
| 2026-04-23 00:00 | -54.84100 | -68.23560 | 644 ft | 153 kts | 275° |
| 2026-04-23 00:01 | -54.84183 | -68.25394 | 402 ft | 151 kts | 278° |
| 2026-04-23 00:01 | -54.84232 | -68.27177 | 165 ft | 145 kts | 276° |
| 2026-04-23 00:01 | -54.84298 | -68.28856 | 86 ft | 127 kts | 265° |
| 2026-04-23 00:01 | -54.84342 | -68.29963 | 81 ft | 76 kts | 263° |
| 2026-04-23 00:02 | -54.84367 | -68.30498 | 80 ft | 36 kts | 265° |
| 2026-04-23 00:02 | -54.84380 | -68.30825 | 50 ft | 16 kts | 266° |
| 2026-04-23 00:02 | -54.84351 | -68.30950 | 85 ft | 9 kts | 334° |
| 2026-04-23 00:02 | -54.84334 | -68.30958 | 85 ft | 0 kts | 351° |
| 2026-04-23 00:03 | -54.84332 | -68.30958 | 85 ft | 1 kts | 355° |